sensor_id;sensor_type;location;lat;lon;timestamp;pressure;altitude;pressure_sealevel;temperature;humidity
10706;BME280;5404;42.656;23.336;2022-08-19T00:01:50;94601.19;;;21.12;100.00
10706;BME280;5404;42.656;23.336;2022-08-19T00:04:18;94607.47;;;21.19;100.00
10706;BME280;5404;42.656;23.336;2022-08-19T00:06:46;94606.59;;;21.12;100.00
10706;BME280;5404;42.656;23.336;2022-08-19T00:09:17;94601.13;;;21.08;100.00
10706;BME280;5404;42.656;23.336;2022-08-19T00:11:44;94600.75;;;21.10;100.00
10706;BME280;5404;42.656;23.336;2022-08-19T00:14:12;94603.78;;;21.05;100.00
10706;BME280;5404;42.656;23.336;2022-08-19T00:16:40;94607.22;;;21.02;100.00
10706;BME280;5404;42.656;23.336;2022-08-19T00:19:07;94600.81;;;20.91;100.00
10706;BME280;5404;42.656;23.336;2022-08-19T00:21:32;94611.78;;;20.98;100.00
10706;BME280;5404;42.656;23.336;2022-08-19T00:24:02;94619.69;;;20.83;100.00
10706;BME280;5404;42.656;23.336;2022-08-19T00:26:27;94605.91;;;20.69;100.00
10706;BME280;5404;42.656;23.336;2022-08-19T00:28:54;94623.13;;;20.80;100.00
10706;BME280;5404;42.656;23.336;2022-08-19T00:31:21;94614.19;;;20.80;100.00
10706;BME280;5404;42.656;23.336;2022-08-19T00:33:47;94619.97;;;20.78;100.00
10706;BME280;5404;42.656;23.336;2022-08-19T00:36:15;94617.75;;;20.84;100.00
10706;BME280;5404;42.656;23.336;2022-08-19T00:38:41;94611.06;;;20.78;100.00
10706;BME280;5404;42.656;23.336;2022-08-19T00:41:09;94603.72;;;20.78;100.00
10706;BME280;5404;42.656;23.336;2022-08-19T00:43:35;94607.69;;;20.84;100.00
10706;BME280;5404;42.656;23.336;2022-08-19T00:46:01;94599.56;;;20.84;100.00
10706;BME280;5404;42.656;23.336;2022-08-19T00:48:29;94600.78;;;20.87;100.00
10706;BME280;5404;42.656;23.336;2022-08-19T00:50:55;94595.31;;;20.83;100.00
10706;BME280;5404;42.656;23.336;2022-08-19T00:53:26;94599.56;;;20.84;100.00
10706;BME280;5404;42.656;23.336;2022-08-19T00:55:56;94602.53;;;20.99;100.00
10706;BME280;5404;42.656;23.336;2022-08-19T00:58:27;94601.75;;;20.98;100.00
10706;BME280;5404;42.656;23.336;2022-08-19T01:00:54;94607.56;;;21.00;100.00
10706;BME280;5404;42.656;23.336;2022-08-19T01:03:20;94598.19;;;20.94;100.00
10706;BME280;5404;42.656;23.336;2022-08-19T01:05:49;94603.66;;;20.98;100.00
10706;BME280;5404;42.656;23.336;2022-08-19T01:08:17;94614.44;;;20.94;100.00
10706;BME280;5404;42.656;23.336;2022-08-19T01:10:53;94612.75;;;20.86;100.00
10706;BME280;5404;42.656;23.336;2022-08-19T01:13:27;94614.03;;;20.69;100.00
10706;BME280;5404;42.656;23.336;2022-08-19T01:16:01;94622.69;;;20.56;100.00
10706;BME280;5404;42.656;23.336;2022-08-19T01:18:29;94616.44;;;20.52;100.00
10706;BME280;5404;42.656;23.336;2022-08-19T01:20:58;94617.22;;;20.52;100.00
10706;BME280;5404;42.656;23.336;2022-08-19T01:23:25;94615.59;;;20.48;100.00
10706;BME280;5404;42.656;23.336;2022-08-19T01:26:19;94630.56;;;20.42;100.00
10706;BME280;5404;42.656;23.336;2022-08-19T01:28:47;94626.25;;;20.37;100.00
10706;BME280;5404;42.656;23.336;2022-08-19T01:31:17;94625.38;;;20.33;100.00
10706;BME280;5404;42.656;23.336;2022-08-19T01:33:43;94618.28;;;20.25;100.00
10706;BME280;5404;42.656;23.336;2022-08-19T01:36:19;94636.09;;;20.26;100.00
10706;BME280;5404;42.656;23.336;2022-08-19T01:38:47;94635.25;;;20.22;100.00
10706;BME280;5404;42.656;23.336;2022-08-19T01:41:13;94630.59;;;20.23;100.00
10706;BME280;5404;42.656;23.336;2022-08-19T01:43:40;94626.47;;;20.10;100.00
10706;BME280;5404;42.656;23.336;2022-08-19T01:46:06;94634.22;;;20.11;100.00
10706;BME280;5404;42.656;23.336;2022-08-19T01:48:38;94628.69;;;20.04;100.00
10706;BME280;5404;42.656;23.336;2022-08-19T01:51:04;94641.91;;;20.09;100.00
10706;BME280;5404;42.656;23.336;2022-08-19T01:53:31;94636.50;;;20.09;100.00
10706;BME280;5404;42.656;23.336;2022-08-19T01:55:57;94626.56;;;19.94;100.00
10706;BME280;5404;42.656;23.336;2022-08-19T01:58:26;94636.38;;;20.02;100.00
10706;BME280;5404;42.656;23.336;2022-08-19T02:00:56;94638.31;;;20.02;100.00
10706;BME280;5404;42.656;23.336;2022-08-19T02:03:22;94647.25;;;20.06;100.00
10706;BME280;5404;42.656;23.336;2022-08-19T02:05:57;94637.94;;;20.03;100.00
10706;BME280;5404;42.656;23.336;2022-08-19T02:08:25;94640.22;;;20.01;100.00
10706;BME280;5404;42.656;23.336;2022-08-19T02:10:51;94641.63;;;19.95;100.00
10706;BME280;5404;42.656;23.336;2022-08-19T02:13:17;94636.22;;;19.95;100.00
10706;BME280;5404;42.656;23.336;2022-08-19T02:15:44;94632.75;;;19.95;100.00
10706;BME280;5404;42.656;23.336;2022-08-19T02:18:10;94637.31;;;19.91;100.00
10706;BME280;5404;42.656;23.336;2022-08-19T02:20:38;94636.03;;;19.85;100.00
10706;BME280;5404;42.656;23.336;2022-08-19T02:23:05;94628.97;;;19.80;100.00
10706;BME280;5404;42.656;23.336;2022-08-19T02:25:30;94637.31;;;19.71;100.00
10706;BME280;5404;42.656;23.336;2022-08-19T02:27:56;94643.06;;;19.70;100.00
10706;BME280;5404;42.656;23.336;2022-08-19T02:30:24;94640.44;;;19.73;100.00
10706;BME280;5404;42.656;23.336;2022-08-19T02:32:50;94638.03;;;19.68;100.00
10706;BME280;5404;42.656;23.336;2022-08-19T02:35:16;94639.34;;;19.59;100.00
10706;BME280;5404;42.656;23.336;2022-08-19T02:37:43;94643.72;;;19.63;100.00
10706;BME280;5404;42.656;23.336;2022-08-19T02:40:28;94648.75;;;19.65;100.00
10706;BME280;5404;42.656;23.336;2022-08-19T02:42:54;94644.56;;;19.48;100.00
10706;BME280;5404;42.656;23.336;2022-08-19T02:45:20;94658.06;;;19.48;100.00
10706;BME280;5404;42.656;23.336;2022-08-19T02:47:45;94663.13;;;19.50;100.00
10706;BME280;5404;42.656;23.336;2022-08-19T02:50:11;94661.19;;;19.50;100.00
10706;BME280;5404;42.656;23.336;2022-08-19T02:52:37;94659.50;;;19.61;100.00
10706;BME280;5404;42.656;23.336;2022-08-19T02:55:05;94669.53;;;19.61;100.00
10706;BME280;5404;42.656;23.336;2022-08-19T02:57:34;94668.03;;;19.63;100.00
10706;BME280;5404;42.656;23.336;2022-08-19T03:00:00;94668.84;;;19.64;100.00
10706;BME280;5404;42.656;23.336;2022-08-19T03:02:26;94661.69;;;19.56;100.00
10706;BME280;5404;42.656;23.336;2022-08-19T03:04:52;94675.00;;;19.64;100.00
10706;BME280;5404;42.656;23.336;2022-08-19T03:07:18;94672.50;;;19.56;100.00
10706;BME280;5404;42.656;23.336;2022-08-19T03:09:44;94658.47;;;19.50;100.00
10706;BME280;5404;42.656;23.336;2022-08-19T03:12:10;94668.44;;;19.46;100.00
10706;BME280;5404;42.656;23.336;2022-08-19T03:14:36;94665.75;;;19.46;100.00
10706;BME280;5404;42.656;23.336;2022-08-19T03:17:03;94669.28;;;19.50;100.00
10706;BME280;5404;42.656;23.336;2022-08-19T03:19:31;94653.72;;;19.44;100.00
10706;BME280;5404;42.656;23.336;2022-08-19T03:21:58;94646.41;;;19.29;100.00
10706;BME280;5404;42.656;23.336;2022-08-19T03:24:24;94648.31;;;19.28;100.00
10706;BME280;5404;42.656;23.336;2022-08-19T03:26:54;94655.06;;;19.34;100.00
10706;BME280;5404;42.656;23.336;2022-08-19T03:29:29;94660.47;;;19.34;100.00
10706;BME280;5404;42.656;23.336;2022-08-19T03:31:57;94666.91;;;19.30;100.00
10706;BME280;5404;42.656;23.336;2022-08-19T03:34:27;94661.81;;;19.28;100.00
10706;BME280;5404;42.656;23.336;2022-08-19T03:36:55;94666.31;;;19.21;100.00
10706;BME280;5404;42.656;23.336;2022-08-19T03:39:22;94662.72;;;19.17;100.00
10706;BME280;5404;42.656;23.336;2022-08-19T03:41:50;94673.34;;;19.25;100.00
10706;BME280;5404;42.656;23.336;2022-08-19T03:44:19;94673.97;;;19.19;100.00
10706;BME280;5404;42.656;23.336;2022-08-19T03:46:52;94682.88;;;19.19;100.00
10706;BME280;5404;42.656;23.336;2022-08-19T03:49:20;94682.44;;;19.17;100.00
10706;BME280;5404;42.656;23.336;2022-08-19T03:51:47;94682.00;;;19.15;100.00
10706;BME280;5404;42.656;23.336;2022-08-19T03:54:15;94689.47;;;19.22;100.00
10706;BME280;5404;42.656;23.336;2022-08-19T03:56:44;94692.09;;;19.18;100.00
10706;BME280;5404;42.656;23.336;2022-08-19T03:59:12;94690.09;;;19.31;100.00
10706;BME280;5404;42.656;23.336;2022-08-19T04:01:38;94693.56;;;19.31;100.00
10706;BME280;5404;42.656;23.336;2022-08-19T04:04:04;94703.78;;;19.38;100.00
10706;BME280;5404;42.656;23.336;2022-08-19T04:06:33;94707.13;;;19.50;100.00
10706;BME280;5404;42.656;23.336;2022-08-19T04:09:02;94697.97;;;19.55;100.00
10706;BME280;5404;42.656;23.336;2022-08-19T04:11:31;94708.06;;;19.58;100.00
10706;BME280;5404;42.656;23.336;2022-08-19T04:13:57;94697.78;;;19.63;100.00
10706;BME280;5404;42.656;23.336;2022-08-19T04:16:25;94696.06;;;19.74;100.00
10706;BME280;5404;42.656;23.336;2022-08-19T04:18:53;94680.78;;;19.82;100.00
10706;BME280;5404;42.656;23.336;2022-08-19T04:21:23;94687.31;;;20.00;100.00
10706;BME280;5404;42.656;23.336;2022-08-19T04:23:49;94689.06;;;20.08;100.00
10706;BME280;5404;42.656;23.336;2022-08-19T04:26:20;94683.53;;;20.20;100.00
10706;BME280;5404;42.656;23.336;2022-08-19T04:28:46;94686.81;;;20.29;100.00
10706;BME280;5404;42.656;23.336;2022-08-19T04:31:23;94695.88;;;20.40;100.00
10706;BME280;5404;42.656;23.336;2022-08-19T04:34:03;94682.31;;;20.59;100.00
10706;BME280;5404;42.656;23.336;2022-08-19T04:36:31;94678.28;;;20.72;100.00
10706;BME280;5404;42.656;23.336;2022-08-19T04:38:59;94673.72;;;20.76;100.00
10706;BME280;5404;42.656;23.336;2022-08-19T04:41:26;94674.38;;;20.93;100.00
10706;BME280;5404;42.656;23.336;2022-08-19T04:44:10;94662.22;;;21.06;100.00
10706;BME280;5404;42.656;23.336;2022-08-19T04:46:36;94670.03;;;21.11;100.00
10706;BME280;5404;42.656;23.336;2022-08-19T04:49:03;94665.16;;;21.20;100.00
10706;BME280;5404;42.656;23.336;2022-08-19T04:51:32;94661.34;;;21.24;100.00
10706;BME280;5404;42.656;23.336;2022-08-19T04:53:59;94668.41;;;21.29;100.00
10706;BME280;5404;42.656;23.336;2022-08-19T04:56:26;94674.25;;;21.31;100.00
10706;BME280;5404;42.656;23.336;2022-08-19T04:58:53;94670.16;;;21.44;100.00
10706;BME280;5404;42.656;23.336;2022-08-19T05:01:25;94651.09;;;21.37;100.00
10706;BME280;5404;42.656;23.336;2022-08-19T05:03:52;94656.34;;;21.52;100.00
10706;BME280;5404;42.656;23.336;2022-08-19T05:06:21;94666.81;;;21.54;100.00
10706;BME280;5404;42.656;23.336;2022-08-19T05:08:47;94669.59;;;21.57;100.00
10706;BME280;5404;42.656;23.336;2022-08-19T05:11:17;94673.59;;;21.67;100.00
10706;BME280;5404;42.656;23.336;2022-08-19T05:13:45;94649.25;;;21.70;100.00
10706;BME280;5404;42.656;23.336;2022-08-19T05:16:12;94647.88;;;21.83;100.00
10706;BME280;5404;42.656;23.336;2022-08-19T05:18:40;94656.66;;;22.03;100.00
10706;BME280;5404;42.656;23.336;2022-08-19T05:21:24;94658.63;;;22.06;100.00
10706;BME280;5404;42.656;23.336;2022-08-19T05:24:09;94655.66;;;22.18;100.00
10706;BME280;5404;42.656;23.336;2022-08-19T05:26:36;94649.13;;;22.23;100.00
10706;BME280;5404;42.656;23.336;2022-08-19T05:29:02;94657.78;;;22.35;100.00
10706;BME280;5404;42.656;23.336;2022-08-19T05:31:28;94644.63;;;22.37;100.00
10706;BME280;5404;42.656;23.336;2022-08-19T05:33:57;94628.75;;;22.39;100.00
10706;BME280;5404;42.656;23.336;2022-08-19T05:36:28;94636.59;;;22.51;100.00
10706;BME280;5404;42.656;23.336;2022-08-19T05:38:56;94628.59;;;22.62;100.00
10706;BME280;5404;42.656;23.336;2022-08-19T05:41:22;94623.13;;;22.58;100.00
10706;BME280;5404;42.656;23.336;2022-08-19T05:43:56;94618.94;;;22.64;100.00
10706;BME280;5404;42.656;23.336;2022-08-19T05:46:23;94627.94;;;22.75;100.00
10706;BME280;5404;42.656;23.336;2022-08-19T05:48:48;94615.56;;;22.78;100.00
10706;BME280;5404;42.656;23.336;2022-08-19T05:51:15;94617.63;;;22.95;100.00
10706;BME280;5404;42.656;23.336;2022-08-19T05:53:41;94623.50;;;23.00;100.00
10706;BME280;5404;42.656;23.336;2022-08-19T05:56:12;94635.97;;;23.08;100.00
10706;BME280;5404;42.656;23.336;2022-08-19T05:58:38;94621.97;;;23.06;100.00
10706;BME280;5404;42.656;23.336;2022-08-19T06:01:10;94631.00;;;23.18;100.00
10706;BME280;5404;42.656;23.336;2022-08-19T06:03:36;94631.41;;;23.20;100.00
10706;BME280;5404;42.656;23.336;2022-08-19T06:06:03;94622.22;;;23.35;100.00
10706;BME280;5404;42.656;23.336;2022-08-19T06:08:34;94626.63;;;23.57;100.00
10706;BME280;5404;42.656;23.336;2022-08-19T06:11:22;94607.56;;;23.53;100.00
10706;BME280;5404;42.656;23.336;2022-08-19T06:13:51;94623.97;;;23.71;100.00
10706;BME280;5404;42.656;23.336;2022-08-19T06:16:21;94609.66;;;23.84;100.00
10706;BME280;5404;42.656;23.336;2022-08-19T06:18:52;94618.25;;;23.97;100.00
10706;BME280;5404;42.656;23.336;2022-08-19T06:21:20;94624.16;;;24.06;100.00
10706;BME280;5404;42.656;23.336;2022-08-19T06:23:46;94614.44;;;24.08;100.00
10706;BME280;5404;42.656;23.336;2022-08-19T06:26:13;94619.94;;;24.23;100.00
10706;BME280;5404;42.656;23.336;2022-08-19T06:28:39;94610.19;;;24.18;100.00
10706;BME280;5404;42.656;23.336;2022-08-19T06:31:14;94618.78;;;24.31;100.00
10706;BME280;5404;42.656;23.336;2022-08-19T06:33:42;94623.47;;;24.34;100.00
10706;BME280;5404;42.656;23.336;2022-08-19T06:36:19;94617.28;;;24.47;100.00
10706;BME280;5404;42.656;23.336;2022-08-19T06:38:45;94613.00;;;24.60;100.00
10706;BME280;5404;42.656;23.336;2022-08-19T06:41:11;94609.88;;;24.65;100.00
10706;BME280;5404;42.656;23.336;2022-08-19T06:43:36;94619.66;;;24.80;100.00
10706;BME280;5404;42.656;23.336;2022-08-19T06:46:03;94614.22;;;24.84;100.00
10706;BME280;5404;42.656;23.336;2022-08-19T06:48:29;94606.44;;;24.96;100.00
10706;BME280;5404;42.656;23.336;2022-08-19T06:50:55;94611.50;;;25.01;100.00
10706;BME280;5404;42.656;23.336;2022-08-19T06:53:21;94600.19;;;25.06;100.00
10706;BME280;5404;42.656;23.336;2022-08-19T06:55:47;94612.63;;;25.14;100.00
10706;BME280;5404;42.656;23.336;2022-08-19T06:58:12;94620.06;;;25.21;100.00
10706;BME280;5404;42.656;23.336;2022-08-19T07:00:38;94611.88;;;25.17;100.00
10706;BME280;5404;42.656;23.336;2022-08-19T07:03:04;94615.34;;;25.28;100.00
10706;BME280;5404;42.656;23.336;2022-08-19T07:05:29;94619.69;;;25.40;100.00
10706;BME280;5404;42.656;23.336;2022-08-19T07:07:55;94620.41;;;25.58;100.00
10706;BME280;5404;42.656;23.336;2022-08-19T07:10:23;94626.25;;;25.64;100.00
10706;BME280;5404;42.656;23.336;2022-08-19T07:12:48;94623.53;;;25.64;100.00
10706;BME280;5404;42.656;23.336;2022-08-19T07:15:15;94633.63;;;25.70;100.00
10706;BME280;5404;42.656;23.336;2022-08-19T07:17:41;94626.22;;;25.81;100.00
10706;BME280;5404;42.656;23.336;2022-08-19T07:20:09;94626.19;;;25.92;100.00
10706;BME280;5404;42.656;23.336;2022-08-19T07:22:38;94621.84;;;25.98;100.00
10706;BME280;5404;42.656;23.336;2022-08-19T07:25:07;94619.91;;;26.09;100.00
10706;BME280;5404;42.656;23.336;2022-08-19T07:27:35;94621.81;;;26.12;100.00
10706;BME280;5404;42.656;23.336;2022-08-19T07:30:03;94623.34;;;26.20;100.00
10706;BME280;5404;42.656;23.336;2022-08-19T07:32:30;94618.25;;;26.25;100.00
10706;BME280;5404;42.656;23.336;2022-08-19T07:34:56;94607.66;;;26.38;100.00
10706;BME280;5404;42.656;23.336;2022-08-19T07:37:21;94621.13;;;26.63;100.00
10706;BME280;5404;42.656;23.336;2022-08-19T07:39:48;94613.63;;;26.84;100.00
10706;BME280;5404;42.656;23.336;2022-08-19T07:42:14;94608.09;;;26.91;100.00
10706;BME280;5404;42.656;23.336;2022-08-19T07:44:40;94615.75;;;27.10;100.00
10706;BME280;5404;42.656;23.336;2022-08-19T07:47:07;94593.84;;;27.14;100.00
10706;BME280;5404;42.656;23.336;2022-08-19T07:49:33;94613.59;;;27.35;100.00
10706;BME280;5404;42.656;23.336;2022-08-19T07:52:04;94608.84;;;27.43;100.00
10706;BME280;5404;42.656;23.336;2022-08-19T07:54:33;94609.16;;;27.48;100.00
10706;BME280;5404;42.656;23.336;2022-08-19T07:57:00;94619.31;;;27.51;100.00
10706;BME280;5404;42.656;23.336;2022-08-19T07:59:25;94611.47;;;27.53;100.00
10706;BME280;5404;42.656;23.336;2022-08-19T08:01:51;94614.44;;;27.70;100.00
10706;BME280;5404;42.656;23.336;2022-08-19T08:04:18;94611.16;;;27.82;100.00
10706;BME280;5404;42.656;23.336;2022-08-19T08:07:03;94610.16;;;28.02;100.00
10706;BME280;5404;42.656;23.336;2022-08-19T08:09:47;94612.94;;;27.99;100.00
10706;BME280;5404;42.656;23.336;2022-08-19T08:12:18;94613.56;;;28.13;100.00
10706;BME280;5404;42.656;23.336;2022-08-19T08:14:56;94612.22;;;28.25;100.00
10706;BME280;5404;42.656;23.336;2022-08-19T08:17:26;94604.91;;;28.45;100.00
10706;BME280;5404;42.656;23.336;2022-08-19T08:19:52;94607.06;;;28.60;100.00
10706;BME280;5404;42.656;23.336;2022-08-19T08:22:20;94607.34;;;28.70;100.00
10706;BME280;5404;42.656;23.336;2022-08-19T08:25:08;94602.00;;;28.86;100.00
10706;BME280;5404;42.656;23.336;2022-08-19T08:27:41;94577.53;;;28.95;100.00
10706;BME280;5404;42.656;23.336;2022-08-19T08:30:09;94595.53;;;28.99;100.00
10706;BME280;5404;42.656;23.336;2022-08-19T08:32:38;94588.22;;;29.16;100.00
10706;BME280;5404;42.656;23.336;2022-08-19T08:35:06;94588.75;;;29.30;100.00
10706;BME280;5404;42.656;23.336;2022-08-19T08:37:32;94593.72;;;29.39;100.00
10706;BME280;5404;42.656;23.336;2022-08-19T08:39:57;94590.34;;;29.51;98.46
10706;BME280;5404;42.656;23.336;2022-08-19T08:42:40;94591.88;;;29.75;89.77
10706;BME280;5404;42.656;23.336;2022-08-19T08:45:13;94594.63;;;29.95;80.04
10706;BME280;5404;42.656;23.336;2022-08-19T08:47:44;94588.72;;;30.16;81.38
10706;BME280;5404;42.656;23.336;2022-08-19T08:50:19;94582.09;;;30.33;88.10
10706;BME280;5404;42.656;23.336;2022-08-19T08:52:53;94579.69;;;30.35;86.83
10706;BME280;5404;42.656;23.336;2022-08-19T08:55:24;94570.38;;;30.29;89.14
10706;BME280;5404;42.656;23.336;2022-08-19T08:58:00;94579.34;;;30.33;89.76
10706;BME280;5404;42.656;23.336;2022-08-19T09:02:53;94582.47;;;30.87;86.55
10706;BME280;5404;42.656;23.336;2022-08-19T09:05:21;94575.09;;;30.83;84.67
10706;BME280;5404;42.656;23.336;2022-08-19T09:08:02;94577.06;;;30.99;80.55
10706;BME280;5404;42.656;23.336;2022-08-19T09:10:46;94560.00;;;31.20;79.01
10706;BME280;5404;42.656;23.336;2022-08-19T09:13:42;94557.97;;;31.40;66.71
10706;BME280;5404;42.656;23.336;2022-08-19T09:16:15;94567.06;;;31.53;55.42
10706;BME280;5404;42.656;23.336;2022-08-19T09:18:46;94567.03;;;31.69;58.88
10706;BME280;5404;42.656;23.336;2022-08-19T09:21:13;94563.97;;;31.80;51.14
10706;BME280;5404;42.656;23.336;2022-08-19T09:23:39;94554.31;;;32.29;49.47
10706;BME280;5404;42.656;23.336;2022-08-19T09:26:10;94554.34;;;33.17;45.86
10706;BME280;5404;42.656;23.336;2022-08-19T09:28:39;94554.91;;;34.67;42.21
10706;BME280;5404;42.656;23.336;2022-08-19T09:31:12;94555.81;;;37.26;34.17
10706;BME280;5404;42.656;23.336;2022-08-19T09:33:38;94555.59;;;39.66;27.62
10706;BME280;5404;42.656;23.336;2022-08-19T09:36:06;94548.84;;;41.32;26.17
10706;BME280;5404;42.656;23.336;2022-08-19T09:38:33;94548.31;;;43.56;24.66
10706;BME280;5404;42.656;23.336;2022-08-19T09:41:07;94549.50;;;45.10;21.60
10706;BME280;5404;42.656;23.336;2022-08-19T09:43:34;94548.00;;;45.04;21.13
10706;BME280;5404;42.656;23.336;2022-08-19T09:46:05;94555.44;;;45.60;21.06
10706;BME280;5404;42.656;23.336;2022-08-19T09:48:37;94545.00;;;44.20;19.89
10706;BME280;5404;42.656;23.336;2022-08-19T09:51:08;94557.69;;;43.80;20.69
10706;BME280;5404;42.656;23.336;2022-08-19T09:53:38;94551.81;;;44.76;19.85
10706;BME280;5404;42.656;23.336;2022-08-19T09:56:05;94548.34;;;42.95;20.30
10706;BME280;5404;42.656;23.336;2022-08-19T09:58:32;94549.25;;;44.78;19.96
10706;BME280;5404;42.656;23.336;2022-08-19T10:00:59;94544.13;;;43.84;19.65
10706;BME280;5404;42.656;23.336;2022-08-19T10:03:25;94526.94;;;42.48;20.85
10706;BME280;5404;42.656;23.336;2022-08-19T10:05:51;94528.22;;;43.13;20.81
10706;BME280;5404;42.656;23.336;2022-08-19T10:08:36;94528.66;;;43.45;20.17
10706;BME280;5404;42.656;23.336;2022-08-19T10:11:03;94522.88;;;45.17;19.10
10706;BME280;5404;42.656;23.336;2022-08-19T10:13:30;94518.09;;;46.21;18.27
10706;BME280;5404;42.656;23.336;2022-08-19T10:16:06;94520.34;;;46.78;17.65
10706;BME280;5404;42.656;23.336;2022-08-19T10:18:33;94527.50;;;46.79;17.56
10706;BME280;5404;42.656;23.336;2022-08-19T10:21:17;94527.34;;;48.14;16.97
10706;BME280;5404;42.656;23.336;2022-08-19T10:23:45;94500.31;;;47.79;16.41
10706;BME280;5404;42.656;23.336;2022-08-19T10:26:14;94525.94;;;48.07;16.09
10706;BME280;5404;42.656;23.336;2022-08-19T10:28:40;94519.34;;;47.65;16.48
10706;BME280;5404;42.656;23.336;2022-08-19T10:31:11;94512.13;;;47.90;16.32
10706;BME280;5404;42.656;23.336;2022-08-19T10:33:38;94505.50;;;47.36;16.44
10706;BME280;5404;42.656;23.336;2022-08-19T10:36:08;94497.50;;;47.66;16.40
10706;BME280;5404;42.656;23.336;2022-08-19T10:38:35;94503.31;;;48.54;16.35
10706;BME280;5404;42.656;23.336;2022-08-19T10:41:32;94502.97;;;48.24;15.81
10706;BME280;5404;42.656;23.336;2022-08-19T10:44:02;94498.31;;;45.84;16.97
10706;BME280;5404;42.656;23.336;2022-08-19T10:46:28;94500.53;;;44.95;17.71
10706;BME280;5404;42.656;23.336;2022-08-19T10:48:58;94492.28;;;45.74;17.39
10706;BME280;5404;42.656;23.336;2022-08-19T10:51:24;94485.91;;;46.98;16.83
10706;BME280;5404;42.656;23.336;2022-08-19T10:54:08;94491.56;;;46.11;17.06
10706;BME280;5404;42.656;23.336;2022-08-19T10:56:34;94488.81;;;44.55;17.93
10706;BME280;5404;42.656;23.336;2022-08-19T10:59:27;94487.34;;;43.56;18.87
10706;BME280;5404;42.656;23.336;2022-08-19T11:01:58;94483.25;;;43.46;19.16
10706;BME280;5404;42.656;23.336;2022-08-19T11:04:25;94491.88;;;44.22;18.71
10706;BME280;5404;42.656;23.336;2022-08-19T11:06:50;94480.41;;;43.52;19.04
10706;BME280;5404;42.656;23.336;2022-08-19T11:09:18;94487.16;;;43.95;19.13
10706;BME280;5404;42.656;23.336;2022-08-19T11:11:45;94474.03;;;43.57;19.07
10706;BME280;5404;42.656;23.336;2022-08-19T11:14:15;94480.91;;;44.19;19.07
10706;BME280;5404;42.656;23.336;2022-08-19T11:16:41;94481.06;;;43.01;19.59
10706;BME280;5404;42.656;23.336;2022-08-19T11:19:09;94469.81;;;42.18;20.30
10706;BME280;5404;42.656;23.336;2022-08-19T11:21:41;94470.56;;;43.34;20.08
10706;BME280;5404;42.656;23.336;2022-08-19T11:24:10;94477.50;;;43.17;19.97
10706;BME280;5404;42.656;23.336;2022-08-19T11:26:37;94472.38;;;42.32;20.12
10706;BME280;5404;42.656;23.336;2022-08-19T11:29:04;94472.41;;;42.93;20.34
10706;BME280;5404;42.656;23.336;2022-08-19T11:31:33;94453.00;;;43.12;19.93
10706;BME280;5404;42.656;23.336;2022-08-19T11:34:04;94462.44;;;42.20;20.73
10706;BME280;5404;42.656;23.336;2022-08-19T11:36:30;94467.06;;;42.45;20.66
10706;BME280;5404;42.656;23.336;2022-08-19T11:38:58;94468.19;;;41.84;21.03
10706;BME280;5404;42.656;23.336;2022-08-19T11:41:24;94455.13;;;40.37;21.93
10706;BME280;5404;42.656;23.336;2022-08-19T11:43:51;94445.44;;;39.41;23.86
10706;BME280;5404;42.656;23.336;2022-08-19T11:46:18;94447.78;;;38.39;25.11
10706;BME280;5404;42.656;23.336;2022-08-19T11:48:44;94446.81;;;37.22;26.47
10706;BME280;5404;42.656;23.336;2022-08-19T11:51:17;94452.19;;;37.25;26.45
10706;BME280;5404;42.656;23.336;2022-08-19T11:53:44;94446.50;;;36.96;27.87
10706;BME280;5404;42.656;23.336;2022-08-19T11:56:11;94437.53;;;36.69;28.71
10706;BME280;5404;42.656;23.336;2022-08-19T11:58:37;94434.63;;;36.30;28.39
10706;BME280;5404;42.656;23.336;2022-08-19T12:01:08;94432.91;;;35.55;29.96
10706;BME280;5404;42.656;23.336;2022-08-19T12:03:34;94417.84;;;35.29;30.90
10706;BME280;5404;42.656;23.336;2022-08-19T12:06:08;94427.25;;;35.50;31.32
10706;BME280;5404;42.656;23.336;2022-08-19T12:08:34;94428.63;;;35.54;30.82
10706;BME280;5404;42.656;23.336;2022-08-19T12:11:00;94412.31;;;35.29;31.53
10706;BME280;5404;42.656;23.336;2022-08-19T12:13:30;94410.91;;;35.61;31.25
10706;BME280;5404;42.656;23.336;2022-08-19T12:15:56;94416.25;;;35.91;30.81
10706;BME280;5404;42.656;23.336;2022-08-19T12:18:22;94413.50;;;35.73;31.11
10706;BME280;5404;42.656;23.336;2022-08-19T12:20:50;94409.00;;;35.94;30.86
10706;BME280;5404;42.656;23.336;2022-08-19T12:23:17;94405.81;;;35.59;30.49
10706;BME280;5404;42.656;23.336;2022-08-19T12:25:46;94395.34;;;35.72;30.93
10706;BME280;5404;42.656;23.336;2022-08-19T12:28:20;94396.47;;;36.07;30.02
10706;BME280;5404;42.656;23.336;2022-08-19T12:30:48;94388.44;;;36.18;29.66
10706;BME280;5404;42.656;23.336;2022-08-19T12:33:16;94389.44;;;35.97;30.31
10706;BME280;5404;42.656;23.336;2022-08-19T12:35:43;94389.19;;;36.19;30.38
10706;BME280;5404;42.656;23.336;2022-08-19T12:38:11;94384.56;;;36.16;30.17
10706;BME280;5404;42.656;23.336;2022-08-19T12:40:38;94388.41;;;35.68;31.27
10706;BME280;5404;42.656;23.336;2022-08-19T12:43:06;94388.50;;;36.00;30.78
10706;BME280;5404;42.656;23.336;2022-08-19T12:45:31;94378.66;;;35.90;29.85
10706;BME280;5404;42.656;23.336;2022-08-19T12:47:57;94374.66;;;35.91;30.29
10706;BME280;5404;42.656;23.336;2022-08-19T12:50:23;94379.63;;;35.69;30.50
10706;BME280;5404;42.656;23.336;2022-08-19T12:52:49;94376.81;;;35.78;30.65
10706;BME280;5404;42.656;23.336;2022-08-19T12:55:14;94373.66;;;35.44;31.17
10706;BME280;5404;42.656;23.336;2022-08-19T12:57:40;94341.19;;;35.44;30.78
10706;BME280;5404;42.656;23.336;2022-08-19T13:02:35;94367.25;;;35.88;30.45
10706;BME280;5404;42.656;23.336;2022-08-19T13:05:01;94361.72;;;35.88;30.77
10706;BME280;5404;42.656;23.336;2022-08-19T13:07:32;94367.09;;;35.83;30.42